Terminal Aerodrome Forecast
Issued by NWS

Home | Current Version | Previous Version | Graphics & Text | Print | Product List | Glossary On
Versions: 1 2 3 4 5 6 7 8 9 10 11 12 13 14 15 16 17 18 19 20 21 22
000
FTUS43 KBIS 060812 AAA
TAFJMS
TAF AMD
KJMS 060812Z 0608/0706 14013KT P6SM BKN070
      TEMPO 0609/0611 2SM SHRA BR SCT002 OVC012
     FM061300 13014KT 5SM -SHRA BR BKN010 OVC030
     FM061600 15013KT 5SM SHRA OVC012=

USA.gov is the U.S. government's official web portal to all federal, state and local government web resources and services.